Detall de PIREP

Printer-friendly versionPDF version

[2015/08/06 11:14:00]
Flight IATA:CT1004
Pilot Number:030
Company ICAO:CAT
Aircraft Type:B738/F
PAX:95
Departing Airport: LEBL
Destination Airport: LFML
Alternate Airport:LFMN
Online: VATSIM
Route:DALIN UN870 SOSUR
Flight Level:F300
No Slew and time accel
No pause
Crash detect
Detect pilot in Cockpit between each 30 and 45 minutes
11:14 Zero fuel Weight: 111401 Lbs, Fuel Weight: 12195 Lbs
11:14 VATSIM:LEBL 061330Z 12008KT 080V160 9999 FEW010 29/23 Q1015 NOSIG
11:14 VATSIM:LFML 061330Z 24012KT CAVOK 34/13 Q1014 NOSIG
11:21 Parking Brakes off
11:29 Take-off
11:29 Take off Weight: 122657 Lbs
11:29 Wind: 106º @ 008 Knots Heading: 066º
11:29 POS N41º 17´ 15´´ E002º 05´ 23´´
11:29 Gear Up: 178 Knots
11:29 Flaps:3 at 178 Knots
11:29 Flaps:1 at 221 Knots
11:29 Flaps:0 at 241 Knots
11:41 TOC
11:41 Fuel Weight: 8618 Lb
11:44 Wind:193º@026 Knots Heading: 068º Ground Speed: 493 Knots Altitude 30019 ft
11:46 TOD
11:46 Fuel Weight: 8082 Lb
11:56 Flaps:2 at 191 Knots
11:56 Flaps:3 at 189 Knots
11:59 Wind:158º@014 Knots Heading: 003º Ground Speed: 222 Knots Altitude 7001 ft
12:04 Flaps:4 at 173 Knots
12:04 Flaps:5 at 170 Knots
12:04 Gear Down: 163 Knots
12:05 Flaps:6 at 160 Knots
12:06 Flaps:7 at 158 Knots
12:06 Flaps:8 at 148 Knots
12:09 TouchDown:Rate -420 ft/min Speed: 140 Knots
12:09 VATSIM:LFML 061430Z 25010KT CAVOK 33/14 Q1014 NOSIG
12:09 Land
12:09 Wind:251º@010 Knots
12:09 Heading: 132º
12:09 Flight Duration: 00:40
12:09 Landing Weight: 116947 Lbs
12:09 POS N43º 26´ 16´´ E005º 12´ 47´´
12:14 Parking brakes on
12:14 Block to Block Duration: 00:53
12:14 Final Fuel: 5138 Lbls
12:14 Spent Fuel: 7056 Lbls
12:14 Flight Length: 235 NM
12:14 TOD Land Length: 111 NM

Exportar CSV

Powered by Drupal - Modified by Danger4k